Weather Models
Both GFS & NAM
00z 06z 12z 18z
24hr Precip
00z 06z 12z 18z
36hr Simulated radar
00z 06z 12z 18z
SKEWT Soundings
00z 12z
Current Conditions (Updated 8:30pm on 1/19/17)
Temperature
 44°
-0.76
50°  
43°  
0
10
20
30
40
50
60
70
80
90
100
Dew Point
33°
38°  
33°  
-20
-10
0
10
20
30
40
50
60
70
80
Wind Chill
44°
50°  
37°  
-20
-10
0
10
20
30
40
50
60
70
80
Wind Chill
Humidity
66%
76% 
58% 
0
10
20
30
40
50
60
70
80
90
100
Barometer
30.04
   Steady
30.10  
30.04  
28.00
28.30
28.60
28.90
29.20
29.50
29.80
30.10
30.40
30.70
31.00
Temperature
Dew Point
Humidity
Pressure
Wind
0mph
ENE
Daily Rain
.00
.05
.10
.15
.20
.25
.30
.35
.40
.45
.50
Rain Today
 0.00" 
Month Rain
0.00
0.20
0.40
0.60
0.80
1.00
1.20
1.40
1.60
1.80
2.00
Month Rain
 1.88" 
Year Rain
0.00
0.25
0.50
0.75
1.00
1.25
1.50
1.75
2.00
2.25
2.50
Year Rain
 1.88" 
Sun & Moon Data
Sunrise 7:17am
Sunset 5:03pm
Moonrise ---
Moonset 11:27am
Moon % 51%
Other Rain Data
Past Hour 0.00 Past 24 Hours 0.00
Past 3 Hours 0.00 Past 7 Days 0.65
Past 6 Hours 0.00
Cloud Height
2650


Current Front Map
Current Satellite map
7 Day Forecast
NWS Forecast for Philadelphia PA
National Weather Service Forecast for: Philadelphia PA
Issued by: National Weather Service Philadelphia, PA
Updated: 6:35 pm EST Jan 19, 2017

Philadelphia
 
Tonight

Tonight: Partly cloudy, with a low around 36. Northwest wind around 6 mph becoming calm  after midnight.
Partly Cloudy

Friday

Friday: Rain, mainly after 10am.  High near 48. Calm wind becoming southeast around 5 mph in the afternoon.  Chance of precipitation is 100%. New precipitation amounts between a tenth and quarter of an inch possible.
Chance Rain
then Rain
Friday
Night
Friday Night: Rain likely, mainly before midnight.  Areas of fog.  Otherwise, cloudy, with a low around 39. Light and variable wind.  Chance of precipitation is 60%. New precipitation amounts of less than a tenth of an inch possible.
Rain Likely
and Areas Fog
Saturday

Saturday: Areas of fog before 9am.  Otherwise, mostly cloudy, with a high near 55. Calm wind becoming southwest around 5 mph in the afternoon.
Areas Fog
then Mostly
Cloudy
Saturday
Night
Saturday Night: A chance of rain after midnight.  Mostly cloudy, with a low around 45. Light and variable wind.  Chance of precipitation is 30%. New precipitation amounts of less than a tenth of an inch possible.
Mostly Cloudy
then Chance
Rain
Sunday

Sunday: Rain likely, mainly after 9am.  Cloudy, with a high near 52. Chance of precipitation is 70%. New precipitation amounts between a quarter and half of an inch possible.
Rain Likely

Sunday
Night
Sunday Night: Periods of rain.  Low around 42. Breezy.  Chance of precipitation is 90%.
Rain and
Breezy
Monday

Monday: Periods of rain.  High near 47. Breezy.  Chance of precipitation is 90%.
Rain and
Breezy
Monday
Night
Monday Night: Rain likely.  Cloudy, with a low around 41. Breezy.  Chance of precipitation is 70%.
Rain Likely
and Breezy
Lo 36 °F Hi 48 °F Lo 39 °F Hi 55 °F Lo 45 °F Hi 52 °F Lo 42 °F Hi 47 °F Lo 41 °F

Hazardous Weather Outlook
 

Tonight
 
Partly cloudy, with a low around 36. Northwest wind around 6 mph becoming calm after midnight.
Friday
 
Rain, mainly after 10am. High near 48. Calm wind becoming southeast around 5 mph in the afternoon. Chance of precipitation is 100%. New precipitation amounts between a tenth and quarter of an inch possible.
Friday Night
 
Rain likely, mainly before midnight. Areas of fog. Otherwise, cloudy, with a low around 39. Light and variable wind. Chance of precipitation is 60%. New precipitation amounts of less than a tenth of an inch possible.
Saturday
 
Areas of fog before 9am. Otherwise, mostly cloudy, with a high near 55. Calm wind becoming southwest around 5 mph in the afternoon.
Saturday Night
 
A chance of rain after midnight. Mostly cloudy, with a low around 45. Light and variable wind. Chance of precipitation is 30%. New precipitation amounts of less than a tenth of an inch possible.
Sunday
 
Rain likely, mainly after 9am. Cloudy, with a high near 52. Chance of precipitation is 70%. New precipitation amounts between a quarter and half of an inch possible.
Sunday Night
 
Periods of rain. Low around 42. Breezy. Chance of precipitation is 90%.
Monday
 
Periods of rain. High near 47. Breezy. Chance of precipitation is 90%.
Monday Night
 
Rain likely. Cloudy, with a low around 41. Breezy. Chance of precipitation is 70%.
Tuesday
 
A chance of rain. Mostly cloudy, with a high near 49. Chance of precipitation is 40%.
Tuesday Night
 
Partly cloudy, with a low around 37.
Wednesday
 
Mostly sunny, with a high near 51.
Wednesday Night
 
Partly cloudy, with a low around 39.
Thursday
 
Mostly sunny, with a high near 50.

 

Forecast from NOAA-NWS for Philadelphia PA.

Area Weather Current Conditions
Nearby METAR Reports

KPHL - Philadelphia, Pennsylvania
Updated: Thu, 19-Jan-2017 7:54pm EST
Mostly Cloudy
Mostly Cloudy
 Wind from NE
Wind: NE 6 mph , 9 km/h
Temperature: 41°F , 5°C
Wind Chill: 37°F , 3°C
Dew Point: 34°F , 1°C
Humidity: 76%
Barometer: 30.03 inHg , 1016.9 hPa
Clouds: Mostly Cloudy
Visibility: 10 miles , 16 km
Cloud details: Mostly Cloudy 25000 ft
2017/01/20 00:54 KPHL 200054Z 04005KT 10SM BKN250 05/01 A3003 RMK AO2 SLP169 T00500006 $
KMPO - Mt. Pocono, Pennsylvania
Updated: Thu, 19-Jan-2017 7:53pm EST
Overcast
Overcast
 Wind from NNW
Wind: NNW 6 mph , 9 km/h
Temperature: 34°F , 1°C
Wind Chill: 29°F , -2°C
Dew Point: 28°F , -2°C
Humidity: 81%
Barometer: 29.98 inHg , 1015.2 hPa
Clouds: Overcast
Visibility: 10 miles , 16 km
Cloud details: Overcast 1300 ft
2017/01/20 00:53 KMPO 200053Z AUTO 34005KT 10SM OVC013 01/M02 A2998 RMK AO2 SLP168 T00061017
 
KACY - Atlantic City, New Jersey
Updated: Thu, 19-Jan-2017 7:54pm EST
Clear
Clear
 Wind from NNE
Wind: NNE 5 mph , 7 km/h
Temperature: 39°F , 4°C
Wind Chill: 35°F , 2°C
Dew Point: 34°F , 1°C
Humidity: 81%
Barometer: 30.03 inHg , 1016.9 hPa
Clouds: Clear
Visibility: 10 miles , 16 km
2017/01/20 00:54 KACY 200054Z 03004KT 10SM CLR 04/01 A3003 RMK AO2 SLP168 T00390006
KMIV - Millville, New Jersey
Updated: Thu, 19-Jan-2017 7:54pm EST
Clear
Clear
 Wind from calm
Wind: Calm
Temperature: 34°F , 1°C
Dew Point: 34°F , 1°C
Humidity: 100%
Barometer: 30.03 inHg , 1016.9 hPa
Clouds: Clear
Visibility: 10 miles , 16 km
2017/01/20 00:54 KMIV 200054Z AUTO 00000KT 10SM CLR 01/01 A3003 RMK AO2 SLP167 T00110006
 
KWWD - Wildwood, New Jersey
Updated: Thu, 19-Jan-2017 7:56pm EST
Clear
Clear
 Wind from calm
Wind: Calm
Temperature: 37°F , 3°C
Dew Point: 36°F , 2°C
Humidity: 93%
Barometer: 30.04 inHg , 1017.3 hPa
Clouds: Clear
Visibility: 10 miles , 16 km
2017/01/20 00:56 KWWD 200056Z AUTO 00000KT 10SM CLR 03/02 A3004 RMK AO2 SLP175 T00330022 $
KDOV - Dover Afb, Delaware
Updated: Thu, 19-Jan-2017 7:58pm EST
Clear
Clear
 Wind from calm
Wind: Calm
Temperature: 39°F , 4°C
Dew Point: 39°F , 4°C
Humidity: 100%
Barometer: 30.03 inHg , 1016.9 hPa
Clouds: Clear
Visibility: 10 miles , 16 km
2017/01/20 00:58 KDOV 200058Z AUTO 00000KT 10SM CLR 04/04 A3003 RMK AO2 SLP173 T00430039 $
Severe Weather Map
Recent Forum Post
[Philadelphia] 2016 -2017 Winter snow forecast by JC December 01, 2016, 04:56:31 AM
[Philadelphia] Winter forecast 2016-2017 by xyonist November 30, 2016, 01:14:08 PM
[Philadelphia] 102.7 last Saturday by JC August 20, 2016, 03:26:22 AM
[Philadelphia] 2015 -2016 Winter snow forecast by JC April 19, 2016, 09:42:40 AM
[Philadelphia] Latest Models on Weekend Storm (Photos) by JC January 23, 2016, 12:01:03 PM
[Philadelphia] Possible large snow storm for end of week ? by JC January 21, 2016, 09:17:47 AM
[Philadelphia] El Nino! by vicente6 September 16, 2015, 01:57:08 AM
[Philadelphia] Early prediction for this winter? by xyonist February 19, 2015, 06:27:46 PM